RYR185 LPPT-GMAD
Flight info
| Callsign | RYR185 |
|---|---|
| Flight time | 1h 27m |
| Altitude | 35000 |
| Route | TROIA DCT TAKAV DCT ESS UR724 AGALI |
| Aircraft | B38M/M-SDE1FGHILORVWXY/HB1 |
Departure
| Time | 2026-04-16 12:58 |
|---|---|
| Airport | Lisbon Humberto Delgado Airport (LPPT) |
Arrival
| Time | 2026-04-16 14:26 |
|---|---|
| Airport | Al Massira Airport (GMAD) |
| Time | Latitude | Longitude | Altitude | Speed | Heading |
|---|---|---|---|---|---|
| 2026-04-16 12:32 | 38.76479 | -9.13613 | 350 ft | 0 kts | 169° |
| 2026-04-16 12:49 | 38.76479 | -9.13616 | 350 ft | 4 kts | 199° |
| 2026-04-16 12:50 | 38.76480 | -9.13618 | 350 ft | 4 kts | 154° |
| 2026-04-16 12:50 | 38.76497 | -9.13638 | 360 ft | 4 kts | 137° |
| 2026-04-16 12:50 | 38.76518 | -9.13660 | 356 ft | 4 kts | 143° |
| 2026-04-16 12:50 | 38.76539 | -9.13681 | 358 ft | 4 kts | 130° |
| 2026-04-16 12:51 | 38.76545 | -9.13701 | 355 ft | 1 kts | 78° |
| 2026-04-16 12:51 | 38.76544 | -9.13707 | 355 ft | 0 kts | 78° |
| 2026-04-16 12:54 | 38.76545 | -9.13704 | 350 ft | 2 kts | 78° |
| 2026-04-16 12:54 | 38.76553 | -9.13655 | 353 ft | 9 kts | 78° |
| 2026-04-16 12:55 | 38.76581 | -9.13645 | 354 ft | 8 kts | 322° |
| 2026-04-16 12:55 | 38.76614 | -9.13732 | 348 ft | 13 kts | 257° |
| 2026-04-16 12:55 | 38.76593 | -9.13856 | 351 ft | 16 kts | 258° |
| 2026-04-16 12:55 | 38.76567 | -9.13999 | 356 ft | 17 kts | 240° |
| 2026-04-16 12:56 | 38.76501 | -9.14101 | 351 ft | 14 kts | 242° |
| 2026-04-16 12:56 | 38.76510 | -9.14220 | 348 ft | 11 kts | 294° |
| 2026-04-16 12:56 | 38.76532 | -9.14285 | 337 ft | 4 kts | 294° |
| 2026-04-16 12:56 | 38.76549 | -9.14340 | 336 ft | 9 kts | 291° |
| 2026-04-16 12:57 | 38.76571 | -9.14412 | 337 ft | 4 kts | 296° |
| 2026-04-16 12:57 | 38.76592 | -9.14417 | 338 ft | 3 kts | 27° |
| 2026-04-16 12:57 | 38.76602 | -9.14410 | 338 ft | 0 kts | 22° |
| 2026-04-16 12:57 | 38.76628 | -9.14397 | 337 ft | 17 kts | 22° |
| 2026-04-16 12:58 | 38.76962 | -9.14220 | 357 ft | 85 kts | 22° |
| 2026-04-16 12:58 | 38.77687 | -9.13832 | 368 ft | 139 kts | 22° |
| 2026-04-16 12:58 | 38.78696 | -9.13287 | 542 ft | 167 kts | 24° |
| 2026-04-16 12:58 | 38.79753 | -9.12698 | 1247 ft | 163 kts | 23° |
| 2026-04-16 12:59 | 38.80798 | -9.12097 | 1890 ft | 172 kts | 23° |
| 2026-04-16 12:59 | 38.81932 | -9.11415 | 2495 ft | 177 kts | 24° |
| 2026-04-16 12:59 | 38.83085 | -9.10762 | 3142 ft | 189 kts | 24° |
| 2026-04-16 13:00 | 38.85737 | -9.09301 | 4049 ft | 224 kts | 24° |
| 2026-04-16 13:00 | 38.87112 | -9.08231 | 4469 ft | 242 kts | 47° |
| 2026-04-16 13:00 | 38.87979 | -9.06318 | 4917 ft | 258 kts | 77° |
| 2026-04-16 13:00 | 38.88030 | -9.03987 | 5366 ft | 270 kts | 105° |
| 2026-04-16 13:01 | 38.87325 | -9.01743 | 6058 ft | 272 kts | 118° |
| 2026-04-16 13:01 | 38.86461 | -8.99552 | 6799 ft | 279 kts | 118° |
| 2026-04-16 13:01 | 38.85472 | -8.97414 | 7539 ft | 279 kts | 135° |
| 2026-04-16 13:01 | 38.83855 | -8.96125 | 8290 ft | 277 kts | 167° |
| 2026-04-16 13:02 | 38.81956 | -8.96157 | 9031 ft | 275 kts | 196° |
| 2026-04-16 13:02 | 38.80071 | -8.96724 | 9733 ft | 281 kts | 189° |
| 2026-04-16 13:02 | 38.78128 | -8.97070 | 10419 ft | 286 kts | 189° |
| 2026-04-16 13:02 | 38.76105 | -8.97398 | 10739 ft | 305 kts | 188° |
| 2026-04-16 13:03 | 38.73928 | -8.97725 | 11161 ft | 318 kts | 188° |
| 2026-04-16 13:03 | 38.71714 | -8.98046 | 11854 ft | 321 kts | 188° |
| 2026-04-16 13:03 | 38.69480 | -8.98377 | 12575 ft | 326 kts | 188° |
| 2026-04-16 13:03 | 38.67210 | -8.98711 | 13354 ft | 329 kts | 188° |
| 2026-04-16 13:04 | 38.64920 | -8.99048 | 14095 ft | 334 kts | 188° |
| 2026-04-16 13:04 | 38.62590 | -8.99389 | 14792 ft | 339 kts | 188° |
| 2026-04-16 13:04 | 38.60268 | -8.99730 | 15505 ft | 342 kts | 188° |
| 2026-04-16 13:04 | 38.57892 | -9.00079 | 16197 ft | 346 kts | 188° |
| 2026-04-16 13:05 | 38.55484 | -9.00432 | 16889 ft | 350 kts | 189° |
| 2026-04-16 13:05 | 38.53051 | -9.00788 | 17567 ft | 354 kts | 188° |
| 2026-04-16 13:05 | 38.50590 | -9.01149 | 18239 ft | 358 kts | 189° |
| 2026-04-16 13:05 | 38.48107 | -9.01511 | 18840 ft | 361 kts | 188° |
| 2026-04-16 13:06 | 38.45597 | -9.01877 | 19429 ft | 364 kts | 188° |
| 2026-04-16 13:06 | 38.43071 | -9.02247 | 20012 ft | 367 kts | 188° |
| 2026-04-16 13:06 | 38.40528 | -9.02617 | 20580 ft | 369 kts | 188° |
| 2026-04-16 13:06 | 38.37967 | -9.02992 | 21150 ft | 372 kts | 188° |
| 2026-04-16 13:07 | 38.35385 | -9.03368 | 21720 ft | 375 kts | 188° |
| 2026-04-16 13:07 | 38.32785 | -9.03747 | 22281 ft | 378 kts | 188° |
| 2026-04-16 13:07 | 38.30161 | -9.04129 | 22840 ft | 380 kts | 188° |
| 2026-04-16 13:07 | 38.27522 | -9.04514 | 23395 ft | 383 kts | 188° |
| 2026-04-16 13:08 | 38.24864 | -9.04901 | 23927 ft | 386 kts | 188° |
| 2026-04-16 13:08 | 38.22188 | -9.05289 | 24381 ft | 389 kts | 188° |
| 2026-04-16 13:08 | 38.19486 | -9.05682 | 24845 ft | 391 kts | 188° |
| 2026-04-16 13:08 | 38.16774 | -9.06077 | 25303 ft | 394 kts | 188° |
| 2026-04-16 13:09 | 38.14043 | -9.06473 | 25739 ft | 396 kts | 188° |
| 2026-04-16 13:09 | 38.11295 | -9.06872 | 26200 ft | 399 kts | 188° |
| 2026-04-16 13:09 | 38.08525 | -9.07274 | 26639 ft | 401 kts | 188° |
| 2026-04-16 13:09 | 38.05743 | -9.07677 | 27063 ft | 404 kts | 188° |
| 2026-04-16 13:10 | 38.02937 | -9.08084 | 27489 ft | 406 kts | 188° |
| 2026-04-16 13:10 | 38.00123 | -9.08491 | 27900 ft | 409 kts | 188° |
| 2026-04-16 13:10 | 37.97281 | -9.08901 | 28312 ft | 412 kts | 188° |
| 2026-04-16 13:10 | 37.94430 | -9.09313 | 28740 ft | 414 kts | 188° |
| 2026-04-16 13:11 | 37.91563 | -9.09728 | 29166 ft | 415 kts | 188° |
| 2026-04-16 13:11 | 37.88681 | -9.10144 | 29550 ft | 418 kts | 188° |
| 2026-04-16 13:11 | 37.85780 | -9.10562 | 29930 ft | 420 kts | 188° |
| 2026-04-16 13:11 | 37.82867 | -9.10981 | 30296 ft | 423 kts | 187° |
| 2026-04-16 13:12 | 37.79941 | -9.11402 | 30623 ft | 425 kts | 187° |
| 2026-04-16 13:12 | 37.76996 | -9.11827 | 30955 ft | 426 kts | 187° |
| 2026-04-16 13:12 | 37.74046 | -9.12251 | 31262 ft | 429 kts | 187° |
| 2026-04-16 13:12 | 37.71111 | -9.12673 | 31562 ft | 431 kts | 187° |
| 2026-04-16 13:13 | 37.68125 | -9.13102 | 31882 ft | 433 kts | 187° |
| 2026-04-16 13:13 | 37.65131 | -9.13531 | 32192 ft | 434 kts | 187° |
| 2026-04-16 13:13 | 37.62118 | -9.13963 | 32493 ft | 437 kts | 187° |
| 2026-04-16 13:13 | 37.59098 | -9.14397 | 32863 ft | 436 kts | 187° |
| 2026-04-16 13:14 | 37.56091 | -9.14829 | 33328 ft | 434 kts | 187° |
| 2026-04-16 13:14 | 37.53100 | -9.15263 | 33775 ft | 432 kts | 188° |
| 2026-04-16 13:14 | 37.50108 | -9.15693 | 34158 ft | 432 kts | 187° |
| 2026-04-16 13:14 | 37.47126 | -9.16121 | 34506 ft | 431 kts | 187° |
| 2026-04-16 13:15 | 37.44147 | -9.16548 | 34876 ft | 429 kts | 187° |
| 2026-04-16 13:15 | 37.41178 | -9.16975 | 35153 ft | 430 kts | 187° |
| 2026-04-16 13:15 | 37.38201 | -9.17399 | 35205 ft | 430 kts | 188° |
| 2026-04-16 13:16 | 37.32290 | -9.18243 | 35197 ft | 426 kts | 187° |
| 2026-04-16 13:16 | 37.26392 | -9.19081 | 35201 ft | 427 kts | 187° |
| 2026-04-16 13:17 | 37.20502 | -9.19917 | 35193 ft | 426 kts | 187° |
| 2026-04-16 13:17 | 37.14644 | -9.20748 | 35193 ft | 426 kts | 187° |
| 2026-04-16 13:18 | 37.08765 | -9.21581 | 35189 ft | 426 kts | 187° |
| 2026-04-16 13:18 | 37.02867 | -9.22413 | 35192 ft | 426 kts | 187° |
| 2026-04-16 13:19 | 36.96985 | -9.23244 | 35184 ft | 427 kts | 187° |
| 2026-04-16 13:19 | 36.91089 | -9.24074 | 35190 ft | 425 kts | 187° |
| 2026-04-16 13:20 | 36.85208 | -9.24900 | 35188 ft | 427 kts | 186° |
| 2026-04-16 13:20 | 36.79311 | -9.25729 | 35184 ft | 426 kts | 186° |
| 2026-04-16 13:21 | 36.73416 | -9.26555 | 35190 ft | 427 kts | 186° |
| 2026-04-16 13:21 | 36.67522 | -9.27380 | 35182 ft | 426 kts | 186° |
| 2026-04-16 13:22 | 36.61622 | -9.28205 | 35184 ft | 427 kts | 186° |
| 2026-04-16 13:22 | 36.55720 | -9.29029 | 35178 ft | 427 kts | 186° |
| 2026-04-16 13:23 | 36.49811 | -9.29852 | 35183 ft | 427 kts | 186° |
| 2026-04-16 13:23 | 36.43912 | -9.30673 | 35179 ft | 427 kts | 186° |
| 2026-04-16 13:24 | 36.38006 | -9.31493 | 35175 ft | 426 kts | 186° |
| 2026-04-16 13:24 | 36.32098 | -9.32312 | 35179 ft | 428 kts | 186° |
| 2026-04-16 13:25 | 36.26224 | -9.33126 | 35171 ft | 427 kts | 186° |
| 2026-04-16 13:25 | 36.20309 | -9.33944 | 35173 ft | 428 kts | 186° |
| 2026-04-16 13:26 | 36.14398 | -9.34760 | 35170 ft | 427 kts | 186° |
| 2026-04-16 13:26 | 36.08482 | -9.35576 | 35165 ft | 428 kts | 186° |
| 2026-04-16 13:27 | 36.02573 | -9.36390 | 35161 ft | 428 kts | 186° |
| 2026-04-16 13:27 | 35.96652 | -9.37159 | 35158 ft | 427 kts | 182° |
| 2026-04-16 13:28 | 35.90718 | -9.37544 | 35165 ft | 427 kts | 182° |
| 2026-04-16 13:28 | 35.84777 | -9.37970 | 35162 ft | 428 kts | 182° |
| 2026-04-16 13:29 | 35.78838 | -9.38402 | 35159 ft | 428 kts | 182° |
| 2026-04-16 13:29 | 35.72909 | -9.38833 | 35161 ft | 428 kts | 182° |
| 2026-04-16 13:30 | 35.66972 | -9.39264 | 35159 ft | 427 kts | 182° |
| 2026-04-16 13:30 | 35.61031 | -9.39694 | 35162 ft | 427 kts | 182° |
| 2026-04-16 13:31 | 35.55092 | -9.40124 | 35158 ft | 427 kts | 182° |
| 2026-04-16 13:31 | 35.49157 | -9.40553 | 35156 ft | 428 kts | 182° |
| 2026-04-16 13:32 | 35.43215 | -9.40982 | 35154 ft | 428 kts | 182° |
| 2026-04-16 13:32 | 35.37274 | -9.41409 | 35153 ft | 427 kts | 182° |
| 2026-04-16 13:33 | 35.31338 | -9.41836 | 35148 ft | 427 kts | 182° |
| 2026-04-16 13:33 | 35.25403 | -9.42262 | 35145 ft | 427 kts | 182° |
| 2026-04-16 13:34 | 35.20466 | -9.42616 | 35146 ft | 427 kts | 182° |
| 2026-04-16 13:34 | 35.14535 | -9.43041 | 35142 ft | 427 kts | 182° |
| 2026-04-16 13:35 | 35.08596 | -9.43466 | 35145 ft | 427 kts | 182° |
| 2026-04-16 13:35 | 35.02657 | -9.43890 | 35140 ft | 427 kts | 182° |
| 2026-04-16 13:36 | 34.96721 | -9.44314 | 35136 ft | 427 kts | 182° |
| 2026-04-16 13:36 | 34.90829 | -9.44733 | 35139 ft | 427 kts | 182° |
| 2026-04-16 13:37 | 34.84892 | -9.45155 | 35138 ft | 427 kts | 182° |
| 2026-04-16 13:37 | 34.78961 | -9.45576 | 35140 ft | 427 kts | 182° |
| 2026-04-16 13:38 | 34.73029 | -9.45997 | 35137 ft | 427 kts | 182° |
| 2026-04-16 13:38 | 34.67090 | -9.46417 | 35134 ft | 427 kts | 182° |
| 2026-04-16 13:39 | 34.61158 | -9.46837 | 35135 ft | 427 kts | 182° |
| 2026-04-16 13:39 | 34.55218 | -9.47256 | 35129 ft | 427 kts | 182° |
| 2026-04-16 13:40 | 34.49282 | -9.47674 | 35130 ft | 427 kts | 182° |
| 2026-04-16 13:40 | 34.43346 | -9.48092 | 35127 ft | 427 kts | 182° |
| 2026-04-16 13:41 | 34.37406 | -9.48510 | 35127 ft | 427 kts | 182° |
| 2026-04-16 13:41 | 34.31469 | -9.48927 | 35121 ft | 427 kts | 182° |
| 2026-04-16 13:42 | 34.25570 | -9.49340 | 35120 ft | 427 kts | 182° |
| 2026-04-16 13:42 | 34.19642 | -9.49755 | 35118 ft | 427 kts | 182° |
| 2026-04-16 13:43 | 34.13715 | -9.50169 | 35120 ft | 427 kts | 182° |
| 2026-04-16 13:43 | 34.07774 | -9.50584 | 35118 ft | 427 kts | 182° |
| 2026-04-16 13:44 | 34.01839 | -9.50998 | 35118 ft | 427 kts | 182° |
| 2026-04-16 13:44 | 33.95909 | -9.51410 | 35118 ft | 427 kts | 182° |
| 2026-04-16 13:45 | 33.89974 | -9.51823 | 35110 ft | 427 kts | 182° |
| 2026-04-16 13:45 | 33.84041 | -9.52235 | 35115 ft | 427 kts | 182° |
| 2026-04-16 13:46 | 33.78112 | -9.52646 | 35117 ft | 427 kts | 182° |
| 2026-04-16 13:46 | 33.72174 | -9.53057 | 35115 ft | 427 kts | 182° |
| 2026-04-16 13:47 | 33.66236 | -9.53467 | 35115 ft | 427 kts | 182° |
| 2026-04-16 13:47 | 33.60304 | -9.53877 | 35101 ft | 427 kts | 182° |
| 2026-04-16 13:48 | 33.54372 | -9.54286 | 35103 ft | 427 kts | 182° |
| 2026-04-16 13:48 | 33.48431 | -9.54691 | 35109 ft | 427 kts | 181° |
| 2026-04-16 13:49 | 33.42496 | -9.54543 | 35105 ft | 427 kts | 178° |
| 2026-04-16 13:49 | 33.36547 | -9.54409 | 35104 ft | 427 kts | 178° |
| 2026-04-16 13:50 | 33.30610 | -9.54297 | 35097 ft | 427 kts | 179° |
| 2026-04-16 13:50 | 33.24657 | -9.54186 | 35096 ft | 427 kts | 179° |
| 2026-04-16 13:51 | 33.18721 | -9.54077 | 35096 ft | 427 kts | 179° |
| 2026-04-16 13:51 | 33.12774 | -9.53968 | 35102 ft | 427 kts | 178° |
| 2026-04-16 13:52 | 33.06833 | -9.53859 | 35087 ft | 427 kts | 179° |
| 2026-04-16 13:52 | 33.00926 | -9.53750 | 35094 ft | 427 kts | 179° |
| 2026-04-16 13:53 | 32.94986 | -9.53641 | 35089 ft | 427 kts | 179° |
| 2026-04-16 13:53 | 32.89043 | -9.53532 | 35083 ft | 427 kts | 179° |
| 2026-04-16 13:54 | 32.83098 | -9.53423 | 35078 ft | 427 kts | 179° |
| 2026-04-16 13:54 | 32.77159 | -9.53315 | 35077 ft | 427 kts | 179° |
| 2026-04-16 13:55 | 32.71230 | -9.53207 | 35070 ft | 426 kts | 179° |
| 2026-04-16 13:55 | 32.65289 | -9.53099 | 35075 ft | 427 kts | 179° |
| 2026-04-16 13:56 | 32.59358 | -9.52991 | 35070 ft | 426 kts | 179° |
| 2026-04-16 13:56 | 32.53419 | -9.52883 | 35079 ft | 428 kts | 179° |
| 2026-04-16 13:57 | 32.47485 | -9.52775 | 35073 ft | 425 kts | 179° |
| 2026-04-16 13:57 | 32.41557 | -9.52668 | 35071 ft | 428 kts | 179° |
| 2026-04-16 13:58 | 32.32669 | -9.52507 | 35067 ft | 425 kts | 179° |
| 2026-04-16 13:58 | 32.26731 | -9.52400 | 35059 ft | 427 kts | 179° |
| 2026-04-16 13:59 | 32.20789 | -9.52293 | 35055 ft | 428 kts | 179° |
| 2026-04-16 13:59 | 32.14820 | -9.52185 | 35056 ft | 429 kts | 179° |
| 2026-04-16 14:00 | 32.11860 | -9.52132 | 35066 ft | 418 kts | 180° |
| 2026-04-16 14:00 | 32.08990 | -9.52080 | 34917 ft | 407 kts | 179° |
| 2026-04-16 14:00 | 32.06176 | -9.52029 | 34466 ft | 404 kts | 179° |
| 2026-04-16 14:00 | 32.03364 | -9.51978 | 33928 ft | 404 kts | 179° |
| 2026-04-16 14:01 | 32.00558 | -9.51928 | 33341 ft | 403 kts | 179° |
| 2026-04-16 14:01 | 31.97759 | -9.51879 | 32834 ft | 400 kts | 179° |
| 2026-04-16 14:01 | 31.94988 | -9.51829 | 32384 ft | 397 kts | 179° |
| 2026-04-16 14:01 | 31.92232 | -9.51779 | 31932 ft | 394 kts | 179° |
| 2026-04-16 14:02 | 31.89498 | -9.51730 | 31478 ft | 392 kts | 179° |
| 2026-04-16 14:02 | 31.86786 | -9.51682 | 31023 ft | 389 kts | 179° |
| 2026-04-16 14:02 | 31.84076 | -9.51633 | 30554 ft | 389 kts | 179° |
| 2026-04-16 14:02 | 31.81377 | -9.51585 | 30063 ft | 388 kts | 179° |
| 2026-04-16 14:03 | 31.78683 | -9.51537 | 29567 ft | 386 kts | 179° |
| 2026-04-16 14:03 | 31.76010 | -9.51490 | 29130 ft | 382 kts | 179° |
| 2026-04-16 14:03 | 31.73360 | -9.51442 | 28715 ft | 379 kts | 179° |
| 2026-04-16 14:03 | 31.70736 | -9.51396 | 28295 ft | 376 kts | 178° |
| 2026-04-16 14:04 | 31.68125 | -9.51350 | 27884 ft | 373 kts | 179° |
| 2026-04-16 14:04 | 31.65539 | -9.51303 | 27479 ft | 371 kts | 179° |
| 2026-04-16 14:04 | 31.62968 | -9.51257 | 27084 ft | 368 kts | 179° |
| 2026-04-16 14:04 | 31.60412 | -9.51212 | 26688 ft | 366 kts | 179° |
| 2026-04-16 14:05 | 31.57906 | -9.51167 | 26301 ft | 364 kts | 179° |
| 2026-04-16 14:05 | 31.55378 | -9.51122 | 25914 ft | 362 kts | 179° |
| 2026-04-16 14:05 | 31.52868 | -9.51077 | 25531 ft | 360 kts | 180° |
| 2026-04-16 14:05 | 31.50362 | -9.51033 | 25149 ft | 359 kts | 180° |
| 2026-04-16 14:06 | 31.47875 | -9.50989 | 24773 ft | 357 kts | 180° |
| 2026-04-16 14:06 | 31.45391 | -9.50944 | 24396 ft | 356 kts | 180° |
| 2026-04-16 14:06 | 31.42920 | -9.50901 | 24023 ft | 354 kts | 180° |
| 2026-04-16 14:06 | 31.40456 | -9.50858 | 23642 ft | 353 kts | 180° |
| 2026-04-16 14:07 | 31.38001 | -9.50814 | 23205 ft | 352 kts | 180° |
| 2026-04-16 14:07 | 31.35559 | -9.50770 | 22795 ft | 349 kts | 180° |
| 2026-04-16 14:07 | 31.33137 | -9.50727 | 22420 ft | 347 kts | 180° |
| 2026-04-16 14:07 | 31.30738 | -9.50685 | 22043 ft | 344 kts | 181° |
| 2026-04-16 14:08 | 31.28350 | -9.50643 | 21692 ft | 341 kts | 180° |
| 2026-04-16 14:08 | 31.25984 | -9.50601 | 21340 ft | 339 kts | 180° |
| 2026-04-16 14:08 | 31.23635 | -9.50560 | 20975 ft | 337 kts | 180° |
| 2026-04-16 14:08 | 31.21293 | -9.50518 | 20632 ft | 335 kts | 181° |
| 2026-04-16 14:09 | 31.18972 | -9.50477 | 20286 ft | 333 kts | 180° |
| 2026-04-16 14:09 | 31.16658 | -9.50436 | 19937 ft | 332 kts | 181° |
| 2026-04-16 14:09 | 31.14358 | -9.50397 | 19588 ft | 330 kts | 181° |
| 2026-04-16 14:09 | 31.12061 | -9.50355 | 19247 ft | 329 kts | 181° |
| 2026-04-16 14:10 | 31.09774 | -9.50316 | 18903 ft | 328 kts | 181° |
| 2026-04-16 14:10 | 31.07500 | -9.50276 | 18563 ft | 327 kts | 181° |
| 2026-04-16 14:10 | 31.05227 | -9.50235 | 18192 ft | 326 kts | 181° |
| 2026-04-16 14:10 | 31.02964 | -9.50195 | 17820 ft | 325 kts | 181° |
| 2026-04-16 14:11 | 31.00710 | -9.50156 | 17464 ft | 323 kts | 181° |
| 2026-04-16 14:11 | 30.98472 | -9.50117 | 17117 ft | 321 kts | 180° |
| 2026-04-16 14:11 | 30.96244 | -9.50078 | 16778 ft | 319 kts | 181° |
| 2026-04-16 14:11 | 30.94034 | -9.50039 | 16444 ft | 317 kts | 181° |
| 2026-04-16 14:12 | 30.91863 | -9.50001 | 16108 ft | 315 kts | 181° |
| 2026-04-16 14:12 | 30.89673 | -9.49963 | 15775 ft | 314 kts | 181° |
| 2026-04-16 14:12 | 30.87495 | -9.49924 | 15449 ft | 312 kts | 180° |
| 2026-04-16 14:12 | 30.85329 | -9.49886 | 15116 ft | 311 kts | 180° |
| 2026-04-16 14:13 | 30.83177 | -9.49848 | 14782 ft | 309 kts | 180° |
| 2026-04-16 14:13 | 30.81034 | -9.49811 | 14467 ft | 307 kts | 180° |
| 2026-04-16 14:13 | 30.78898 | -9.49773 | 14138 ft | 306 kts | 180° |
| 2026-04-16 14:13 | 30.76769 | -9.49736 | 13808 ft | 306 kts | 180° |
| 2026-04-16 14:14 | 30.74640 | -9.49699 | 13439 ft | 305 kts | 180° |
| 2026-04-16 14:14 | 30.72523 | -9.49599 | 13076 ft | 304 kts | 172° |
| 2026-04-16 14:14 | 30.70463 | -9.49052 | 12727 ft | 304 kts | 166° |
| 2026-04-16 14:14 | 30.68420 | -9.48462 | 12411 ft | 301 kts | 167° |
| 2026-04-16 14:15 | 30.66390 | -9.47885 | 12102 ft | 299 kts | 168° |
| 2026-04-16 14:15 | 30.64374 | -9.47317 | 11775 ft | 297 kts | 166° |
| 2026-04-16 14:15 | 30.62443 | -9.46473 | 11430 ft | 298 kts | 153° |
| 2026-04-16 14:15 | 30.60739 | -9.45128 | 11110 ft | 296 kts | 140° |
| 2026-04-16 14:16 | 30.59319 | -9.43406 | 10812 ft | 295 kts | 129° |
| 2026-04-16 14:16 | 30.58220 | -9.41408 | 10535 ft | 294 kts | 118° |
| 2026-04-16 14:16 | 30.57477 | -9.39201 | 10246 ft | 294 kts | 107° |
| 2026-04-16 14:16 | 30.57135 | -9.36855 | 9902 ft | 296 kts | 95° |
| 2026-04-16 14:17 | 30.57025 | -9.34472 | 9482 ft | 297 kts | 98° |
| 2026-04-16 14:17 | 30.56673 | -9.32114 | 9097 ft | 297 kts | 104° |
| 2026-04-16 14:17 | 30.56143 | -9.29808 | 8736 ft | 295 kts | 109° |
| 2026-04-16 14:17 | 30.55461 | -9.27567 | 8394 ft | 294 kts | 112° |
| 2026-04-16 14:18 | 30.54629 | -9.25404 | 8054 ft | 293 kts | 118° |
| 2026-04-16 14:18 | 30.53569 | -9.23406 | 7711 ft | 289 kts | 134° |
| 2026-04-16 14:18 | 30.51973 | -9.22053 | 7378 ft | 284 kts | 156° |
| 2026-04-16 14:18 | 30.50182 | -9.21103 | 7032 ft | 283 kts | 158° |
| 2026-04-16 14:19 | 30.48375 | -9.20203 | 6696 ft | 283 kts | 159° |
| 2026-04-16 14:19 | 30.46570 | -9.19281 | 6343 ft | 283 kts | 159° |
| 2026-04-16 14:19 | 30.44801 | -9.18373 | 5995 ft | 283 kts | 159° |
| 2026-04-16 14:19 | 30.43006 | -9.17452 | 5688 ft | 282 kts | 159° |
| 2026-04-16 14:20 | 30.41245 | -9.16543 | 5359 ft | 281 kts | 159° |
| 2026-04-16 14:20 | 30.39461 | -9.15613 | 5017 ft | 281 kts | 159° |
| 2026-04-16 14:20 | 30.37679 | -9.14696 | 4715 ft | 279 kts | 160° |
| 2026-04-16 14:20 | 30.35821 | -9.14326 | 4498 ft | 264 kts | 187° |
| 2026-04-16 14:21 | 30.34093 | -9.14740 | 4305 ft | 246 kts | 198° |
| 2026-04-16 14:21 | 30.32560 | -9.15420 | 4112 ft | 228 kts | 216° |
| 2026-04-16 14:21 | 30.31546 | -9.16722 | 3872 ft | 214 kts | 245° |
| 2026-04-16 14:21 | 30.31275 | -9.18352 | 3619 ft | 205 kts | 275° |
| 2026-04-16 14:22 | 30.31482 | -9.19428 | 3473 ft | 201 kts | 283° |
| 2026-04-16 14:22 | 30.31727 | -9.20996 | 3206 ft | 195 kts | 274° |
| 2026-04-16 14:22 | 30.31811 | -9.22533 | 2978 ft | 188 kts | 271° |
| 2026-04-16 14:22 | 30.31859 | -9.24044 | 2624 ft | 190 kts | 270° |
| 2026-04-16 14:23 | 30.31904 | -9.25576 | 2369 ft | 186 kts | 270° |
| 2026-04-16 14:23 | 30.31935 | -9.27034 | 2149 ft | 180 kts | 269° |
| 2026-04-16 14:23 | 30.31957 | -9.28464 | 1980 ft | 178 kts | 269° |
| 2026-04-16 14:23 | 30.31974 | -9.29897 | 1789 ft | 178 kts | 270° |
| 2026-04-16 14:24 | 30.32006 | -9.31326 | 1562 ft | 176 kts | 270° |
| 2026-04-16 14:24 | 30.32056 | -9.32725 | 1335 ft | 170 kts | 270° |
| 2026-04-16 14:24 | 30.32083 | -9.34023 | 1116 ft | 149 kts | 271° |
| 2026-04-16 14:24 | 30.32113 | -9.35131 | 916 ft | 132 kts | 271° |
| 2026-04-16 14:25 | 30.32125 | -9.36194 | 750 ft | 135 kts | 270° |
| 2026-04-16 14:25 | 30.32163 | -9.37430 | 689 ft | 175 kts | 274° |
| 2026-04-16 14:25 | 30.32226 | -9.38785 | 468 ft | 160 kts | 270° |
| 2026-04-16 14:25 | 30.32235 | -9.40005 | 245 ft | 141 kts | 271° |
| 2026-04-16 14:26 | 30.32259 | -9.41010 | 234 ft | 100 kts | 271° |
| 2026-04-16 14:26 | 30.32273 | -9.41582 | 234 ft | 51 kts | 272° |
| 2026-04-16 14:26 | 30.32352 | -9.41967 | 234 ft | 49 kts | 302° |
| 2026-04-16 14:26 | 30.32455 | -9.42159 | 235 ft | 20 kts | 306° |
| 2026-04-16 14:27 | 30.32591 | -9.42193 | 236 ft | 22 kts | 1° |
| 2026-04-16 14:27 | 30.32754 | -9.42188 | 234 ft | 25 kts | 2° |
| 2026-04-16 14:27 | 30.32835 | -9.42119 | 234 ft | 15 kts | 93° |
| 2026-04-16 14:27 | 30.32831 | -9.41988 | 234 ft | 18 kts | 91° |
| 2026-04-16 14:28 | 30.32828 | -9.41838 | 234 ft | 20 kts | 91° |
| 2026-04-16 14:28 | 30.32824 | -9.41667 | 234 ft | 22 kts | 91° |
| 2026-04-16 14:28 | 30.32820 | -9.41478 | 234 ft | 25 kts | 92° |
| 2026-04-16 14:28 | 30.32815 | -9.41310 | 234 ft | 15 kts | 91° |
| 2026-04-16 14:29 | 30.32813 | -9.41195 | 234 ft | 14 kts | 91° |
| 2026-04-16 14:29 | 30.32811 | -9.41118 | 234 ft | 7 kts | 90° |
| 2026-04-16 14:29 | 30.32833 | -9.41098 | 234 ft | 5 kts | 12° |
| 2026-04-16 14:29 | 30.32864 | -9.41096 | 234 ft | 3 kts | 3° |
| 2026-04-16 14:30 | 30.32884 | -9.41095 | 234 ft | 0 kts | 2° |
| 2026-04-16 14:30 | 30.32883 | -9.41095 | 234 ft | 0 kts | 2° |
| 2026-04-16 14:32 | 30.32877 | -9.41094 | 453 ft | 2 kts | 340° |
| 2026-04-16 14:32 | 30.32885 | -9.41093 | 238 ft | 0 kts | 24° |
| 2026-04-16 14:33 | 30.32882 | -9.41095 | 238 ft | 0 kts | 2° |